»·PEaware :: N221XG KBFI-KYKM

N221XG :: KBFI-KYKM

FLIGHT INFORMATION

Flight Status: Arrived
Operator: Privately registered:
United States
More flights under this callsign
Pilot: Ryan L. (9775)
Aircraft: SOCATA TBM-900
(TBM9)
More flights by this aircraft type
Origin: KBFI Boeing Field/King Co Intl
United States
Destination: KYKM Yakima Air Term/Mcallister
United States
More flights between these airports :: More routes between these airports
Route: +KENT8 SEA V4 YKM
File this flight plan on PilotEdge
Remarks: Planning miss on VOR A with hold
Altitude:
(Current/Filed)
17,000ft
Speed:
(Current/Filed)
250kts
Departed: 18-Jan-19 08:41 PM
Arrived: 18-Jan-19 09:40 PM
Distance/Time
Traveled:
92nm/0:58
Distance/Time
To Go:
Arrived

Flight Plot

Page will automatically refresh every two minutes.

Flight plan parsing failed; only flown route is shown


Map Options




Map Legend


Flown Route
Filed Route
Departure Airport
Arrival Airport
Navaid (VOR, NDB)
Fix

Horizontal Profiles

Position Reports

Time Latitude Longitude Heading Altitude Ground
Speed
18-Jan-19 20:22 47.520520 -122.296820 1 23ft 0kts
18-Jan-19 20:23 47.520520 -122.296820 1 23ft 0kts
18-Jan-19 20:24 47.520520 -122.296820 1 23ft 0kts
18-Jan-19 20:25 47.520520 -122.296820 1 23ft 0kts
18-Jan-19 20:26 47.520520 -122.296820 1 23ft 0kts
18-Jan-19 20:27 47.520520 -122.296820 1 23ft 0kts
18-Jan-19 20:28 47.520520 -122.296820 1 23ft 0kts
18-Jan-19 20:29 47.520520 -122.296820 1 23ft 0kts
18-Jan-19 20:30 47.520520 -122.296820 1 23ft 0kts
18-Jan-19 20:31 47.520520 -122.296820 1 23ft 0kts
18-Jan-19 20:32 47.520974 -122.296730 10 23ft 7kts
18-Jan-19 20:33 47.524679 -122.299504 330 23ft 20kts
18-Jan-19 20:34 47.529496 -122.303571 329 23ft 19kts
18-Jan-19 20:35 47.534158 -122.307514 328 23ft 19kts
18-Jan-19 20:36 47.538780 -122.311410 330 23ft 19kts
18-Jan-19 20:37 47.539914 -122.312281 10 23ft 0kts
18-Jan-19 20:38 47.539916 -122.312280 9 23ft 0kts
18-Jan-19 20:39 47.540139 -122.311843 62 23ft 5kts
18-Jan-19 20:40 47.527485 -122.300147 147 220ft 119kts
18-Jan-19 20:41 47.497571 -122.277591 160 2091ft 125kts
18-Jan-19 20:42 47.463692 -122.289388 197 3991ft 128kts
18-Jan-19 20:43 47.424966 -122.309312 158 4895ft 189kts
18-Jan-19 20:44 47.405502 -122.242862 105 7072ft 175kts
18-Jan-19 20:45 47.391282 -122.174123 144 8798ft 168kts
18-Jan-19 20:46 47.358374 -122.123149 144 10713ft 176kts
18-Jan-19 20:47 47.326681 -122.058697 133 12535ft 207kts
18-Jan-19 20:48 47.294686 -121.987197 137 14475ft 209kts
18-Jan-19 20:49 47.259962 -121.914980 136 16191ft 218kts
18-Jan-19 20:50 47.221170 -121.834844 134 17044ft 270kts
18-Jan-19 20:51 47.175082 -121.735183 131 17018ft 304kts
18-Jan-19 20:52 47.127284 -121.630882 131 17010ft 308kts
18-Jan-19 20:53 47.078692 -121.525321 131 17011ft 307kts
18-Jan-19 20:55 47.030150 -121.420314 131 17013ft 307kts
18-Jan-19 20:56 46.981640 -121.315743 132 17004ft 306kts
18-Jan-19 20:57 46.932808 -121.210905 132 17005ft 305kts
18-Jan-19 20:58 46.885945 -121.110636 132 16424ft 297kts
18-Jan-19 20:59 46.840561 -121.013861 133 15041ft 275kts
18-Jan-19 21:00 46.796883 -120.921098 133 13482ft 267kts
18-Jan-19 21:01 46.754035 -120.830421 133 12332ft 261kts
18-Jan-19 21:02 46.713345 -120.744641 132 11305ft 248kts
18-Jan-19 21:03 46.674713 -120.663329 131 10172ft 231kts
18-Jan-19 21:04 46.639102 -120.588579 130 9111ft 214kts
18-Jan-19 21:05 46.606206 -120.515670 127 7890ft 208kts
18-Jan-19 21:06 46.574247 -120.442867 109 6618ft 209kts
18-Jan-19 21:07 46.551935 -120.370301 119 5924ft 162kts
18-Jan-19 21:08 46.529366 -120.313125 114 4725ft 163kts
18-Jan-19 21:09 46.507087 -120.267303 156 4601ft 129kts
18-Jan-19 21:10 46.471679 -120.242318 165 4594ft 138kts
18-Jan-19 21:11 46.469052 -120.281902 337 4612ft 159kts
18-Jan-19 21:12 46.510900 -120.306214 338 4160ft 156kts
18-Jan-19 21:13 46.538552 -120.350264 291 3524ft 153kts
18-Jan-19 21:14 46.556357 -120.406019 298 2870ft 137kts
18-Jan-19 21:15 46.567122 -120.450822 266 2826ft 122kts
18-Jan-19 21:16 46.565236 -120.494678 266 1922ft 106kts
18-Jan-19 21:17 46.563267 -120.541217 265 2747ft 128kts
18-Jan-19 21:17 46.579555 -120.574719 358 4494ft 154kts
18-Jan-19 21:18 46.603236 -120.538179 120 4617ft 160kts
18-Jan-19 21:19 46.583412 -120.478579 120 4597ft 157kts
18-Jan-19 21:21 46.546884 -120.433061 160 4596ft 147kts
18-Jan-19 21:21 46.516372 -120.411765 112 4602ft 146kts
18-Jan-19 21:22 46.545884 -120.394714 299 4609ft 154kts
18-Jan-19 21:23 46.579487 -120.420115 52 4980ft 166kts
18-Jan-19 21:24 46.583602 -120.350215 95 5412ft 185kts
18-Jan-19 21:25 46.575031 -120.275786 104 5395ft 177kts
18-Jan-19 21:26 46.566092 -120.201930 104 5399ft 182kts
18-Jan-19 21:27 46.557128 -120.127086 104 5398ft 183kts
18-Jan-19 21:28 46.541673 -120.058840 163 5385ft 167kts
18-Jan-19 21:29 46.496811 -120.074695 197 5390ft 157kts
18-Jan-19 21:30 46.481211 -120.135314 253 5398ft 160kts
18-Jan-19 21:31 46.480856 -120.192577 281 5434ft 124kts
18-Jan-19 21:32 46.493113 -120.241934 283 5189ft 129kts
18-Jan-19 21:33 46.505693 -120.292483 285 4505ft 131kts
18-Jan-19 21:34 46.518530 -120.343947 288 3779ft 128kts
18-Jan-19 21:35 46.530906 -120.393481 290 3089ft 129kts
18-Jan-19 21:36 46.541640 -120.436334 291 2470ft 99kts
18-Jan-19 21:37 46.551338 -120.475307 288 1948ft 102kts
18-Jan-19 21:38 46.561328 -120.515077 291 1349ft 103kts
18-Jan-19 21:39 46.568913 -120.545011 290 1102ft 34kts
18-Jan-19 21:40 46.570828 -120.549361 19 1102ft 0kts
18-Jan-19 21:41 46.571204 -120.549566 298 1102ft 8kts
18-Jan-19 21:42 46.572220 -120.553479 303 1102ft 7kts
18-Jan-19 21:43 46.573141 -120.553764 9 1102ft 0kts
18-Jan-19 21:44 46.573140 -120.553764 9 1102ft 0kts
18-Jan-19 21:45 46.573140 -120.553764 9 1102ft 0kts
18-Jan-19 21:46 46.573140 -120.553764 9 1102ft 0kts

Navigation Log

Ident Type
Flight plan parsing failed, navigation log unavailable